sensor_id;sensor_type;location;lat;lon;timestamp;temperature;humidity
6439;DHT22;3252;52.540;13.290;2024-02-26T00:01:27;22.20;92.00
6439;DHT22;3252;52.540;13.290;2024-02-26T00:03:30;22.20;92.10
6439;DHT22;3252;52.540;13.290;2024-02-26T00:05:33;22.10;92.10
6439;DHT22;3252;52.540;13.290;2024-02-26T00:07:35;22.10;92.10
6439;DHT22;3252;52.540;13.290;2024-02-26T00:09:40;22.10;92.10
6439;DHT22;3252;52.540;13.290;2024-02-26T00:11:42;22.00;92.10
6439;DHT22;3252;52.540;13.290;2024-02-26T00:13:43;22.00;92.10
6439;DHT22;3252;52.540;13.290;2024-02-26T00:15:45;22.00;92.20
6439;DHT22;3252;52.540;13.290;2024-02-26T00:17:47;22.00;92.20
6439;DHT22;3252;52.540;13.290;2024-02-26T00:19:49;22.00;92.20
6439;DHT22;3252;52.540;13.290;2024-02-26T00:21:52;22.00;92.20
6439;DHT22;3252;52.540;13.290;2024-02-26T00:23:56;21.90;92.20
6439;DHT22;3252;52.540;13.290;2024-02-26T00:25:59;21.90;92.30
6439;DHT22;3252;52.540;13.290;2024-02-26T00:28:01;21.90;92.30
6439;DHT22;3252;52.540;13.290;2024-02-26T00:30:04;21.90;92.30
6439;DHT22;3252;52.540;13.290;2024-02-26T00:32:07;21.90;92.30
6439;DHT22;3252;52.540;13.290;2024-02-26T00:34:09;21.80;92.30
6439;DHT22;3252;52.540;13.290;2024-02-26T00:36:12;21.80;92.40
6439;DHT22;3252;52.540;13.290;2024-02-26T00:38:14;21.80;92.40
6439;DHT22;3252;52.540;13.290;2024-02-26T00:40:16;21.80;92.40
6439;DHT22;3252;52.540;13.290;2024-02-26T00:42:20;21.80;92.40
6439;DHT22;3252;52.540;13.290;2024-02-26T00:44:22;21.70;92.40
6439;DHT22;3252;52.540;13.290;2024-02-26T00:46:24;21.70;92.40
6439;DHT22;3252;52.540;13.290;2024-02-26T00:48:26;21.70;92.40
6439;DHT22;3252;52.540;13.290;2024-02-26T00:50:28;21.70;92.50
6439;DHT22;3252;52.540;13.290;2024-02-26T00:52:30;21.70;92.50
6439;DHT22;3252;52.540;13.290;2024-02-26T00:54:32;21.70;92.50
6439;DHT22;3252;52.540;13.290;2024-02-26T00:56:34;21.60;92.50
6439;DHT22;3252;52.540;13.290;2024-02-26T00:58:38;21.60;92.50
6439;DHT22;3252;52.540;13.290;2024-02-26T01:00:40;21.60;92.50
6439;DHT22;3252;52.540;13.290;2024-02-26T01:02:42;21.60;92.50
6439;DHT22;3252;52.540;13.290;2024-02-26T01:04:44;21.50;92.50
6439;DHT22;3252;52.540;13.290;2024-02-26T01:06:45;21.50;92.50
6439;DHT22;3252;52.540;13.290;2024-02-26T01:08:47;21.50;92.60
6439;DHT22;3252;52.540;13.290;2024-02-26T01:10:49;21.50;92.60
6439;DHT22;3252;52.540;13.290;2024-02-26T01:12:51;21.40;92.60
6439;DHT22;3252;52.540;13.290;2024-02-26T01:14:55;21.40;92.60
6439;DHT22;3252;52.540;13.290;2024-02-26T01:16:57;21.40;92.60
6439;DHT22;3252;52.540;13.290;2024-02-26T01:18:59;21.40;92.60
6439;DHT22;3252;52.540;13.290;2024-02-26T01:21:00;21.40;92.70
6439;DHT22;3252;52.540;13.290;2024-02-26T01:23:02;21.40;92.70
6439;DHT22;3252;52.540;13.290;2024-02-26T01:25:05;21.30;92.70
6439;DHT22;3252;52.540;13.290;2024-02-26T01:27:07;21.30;92.70
6439;DHT22;3252;52.540;13.290;2024-02-26T01:29:10;21.30;92.70
6439;DHT22;3252;52.540;13.290;2024-02-26T01:31:13;21.30;92.70
6439;DHT22;3252;52.540;13.290;2024-02-26T01:33:15;21.30;92.80
6439;DHT22;3252;52.540;13.290;2024-02-26T01:35:17;21.30;92.80
6439;DHT22;3252;52.540;13.290;2024-02-26T01:37:20;21.30;92.80
6439;DHT22;3252;52.540;13.290;2024-02-26T01:39:22;21.30;92.80
6439;DHT22;3252;52.540;13.290;2024-02-26T01:41:24;21.20;92.80
6439;DHT22;3252;52.540;13.290;2024-02-26T01:43:25;21.20;92.80
6439;DHT22;3252;52.540;13.290;2024-02-26T01:45:28;21.20;92.80
6439;DHT22;3252;52.540;13.290;2024-02-26T01:47:31;21.20;92.80
6439;DHT22;3252;52.540;13.290;2024-02-26T01:49:33;21.20;92.80
6439;DHT22;3252;52.540;13.290;2024-02-26T01:51:35;21.10;92.80
6439;DHT22;3252;52.540;13.290;2024-02-26T01:53:38;21.10;92.80
6439;DHT22;3252;52.540;13.290;2024-02-26T01:55:41;21.10;92.90
6439;DHT22;3252;52.540;13.290;2024-02-26T01:57:44;21.10;92.90
6439;DHT22;3252;52.540;13.290;2024-02-26T01:59:46;21.10;92.90
6439;DHT22;3252;52.540;13.290;2024-02-26T02:01:52;21.10;92.90
6439;DHT22;3252;52.540;13.290;2024-02-26T02:03:59;21.00;92.90
6439;DHT22;3252;52.540;13.290;2024-02-26T02:06:02;21.00;92.90
6439;DHT22;3252;52.540;13.290;2024-02-26T02:08:04;21.00;92.90
6439;DHT22;3252;52.540;13.290;2024-02-26T02:10:07;21.00;92.90
6439;DHT22;3252;52.540;13.290;2024-02-26T02:12:09;21.00;92.90
6439;DHT22;3252;52.540;13.290;2024-02-26T02:14:12;21.00;92.90
6439;DHT22;3252;52.540;13.290;2024-02-26T02:16:14;21.00;92.90
6439;DHT22;3252;52.540;13.290;2024-02-26T02:18:16;21.00;92.90
6439;DHT22;3252;52.540;13.290;2024-02-26T02:20:27;21.00;92.90
6439;DHT22;3252;52.540;13.290;2024-02-26T02:22:34;21.00;92.90
6439;DHT22;3252;52.540;13.290;2024-02-26T02:24:36;20.90;92.80
6439;DHT22;3252;52.540;13.290;2024-02-26T02:26:38;20.90;92.90
6439;DHT22;3252;52.540;13.290;2024-02-26T02:28:41;20.90;92.90
6439;DHT22;3252;52.540;13.290;2024-02-26T02:30:43;20.90;92.90
6439;DHT22;3252;52.540;13.290;2024-02-26T02:32:45;20.90;92.90
6439;DHT22;3252;52.540;13.290;2024-02-26T02:34:47;20.90;92.90
6439;DHT22;3252;52.540;13.290;2024-02-26T02:36:52;20.90;92.90
6439;DHT22;3252;52.540;13.290;2024-02-26T02:38:54;20.90;92.90
6439;DHT22;3252;52.540;13.290;2024-02-26T02:40:56;20.90;92.90
6439;DHT22;3252;52.540;13.290;2024-02-26T02:42:57;20.90;92.90
6439;DHT22;3252;52.540;13.290;2024-02-26T02:45:00;20.90;92.90
6439;DHT22;3252;52.540;13.290;2024-02-26T02:47:01;20.80;92.90
6439;DHT22;3252;52.540;13.290;2024-02-26T02:49:04;20.80;92.90
6439;DHT22;3252;52.540;13.290;2024-02-26T02:51:06;20.80;92.90
6439;DHT22;3252;52.540;13.290;2024-02-26T02:53:09;20.80;92.90
6439;DHT22;3252;52.540;13.290;2024-02-26T02:55:12;20.80;92.90
6439;DHT22;3252;52.540;13.290;2024-02-26T02:57:14;20.80;92.90
6439;DHT22;3252;52.540;13.290;2024-02-26T02:59:16;20.80;92.90
6439;DHT22;3252;52.540;13.290;2024-02-26T03:01:18;20.80;93.20
6439;DHT22;3252;52.540;13.290;2024-02-26T03:03:20;20.80;92.90
6439;DHT22;3252;52.540;13.290;2024-02-26T03:05:24;20.80;92.90
6439;DHT22;3252;52.540;13.290;2024-02-26T03:07:27;20.80;92.90
6439;DHT22;3252;52.540;13.290;2024-02-26T03:09:30;20.70;92.90
6439;DHT22;3252;52.540;13.290;2024-02-26T03:11:33;20.70;92.90
6439;DHT22;3252;52.540;13.290;2024-02-26T03:13:34;20.70;92.90
6439;DHT22;3252;52.540;13.290;2024-02-26T03:15:37;20.70;92.90
6439;DHT22;3252;52.540;13.290;2024-02-26T03:17:39;20.70;92.90
6439;DHT22;3252;52.540;13.290;2024-02-26T03:19:41;20.70;92.90
6439;DHT22;3252;52.540;13.290;2024-02-26T03:21:43;20.60;92.90
6439;DHT22;3252;52.540;13.290;2024-02-26T03:23:45;20.60;92.90
6439;DHT22;3252;52.540;13.290;2024-02-26T03:25:49;20.60;92.90
6439;DHT22;3252;52.540;13.290;2024-02-26T03:27:50;20.60;92.90
6439;DHT22;3252;52.540;13.290;2024-02-26T03:29:52;20.60;93.00
6439;DHT22;3252;52.540;13.290;2024-02-26T03:31:54;20.60;93.00
6439;DHT22;3252;52.540;13.290;2024-02-26T03:33:56;20.60;93.00
6439;DHT22;3252;52.540;13.290;2024-02-26T03:35:58;20.60;93.00
6439;DHT22;3252;52.540;13.290;2024-02-26T03:38:01;20.50;93.00
6439;DHT22;3252;52.540;13.290;2024-02-26T03:40:04;20.50;93.00
6439;DHT22;3252;52.540;13.290;2024-02-26T03:42:08;20.50;93.00
6439;DHT22;3252;52.540;13.290;2024-02-26T03:44:09;20.50;93.00
6439;DHT22;3252;52.540;13.290;2024-02-26T03:46:11;20.50;93.00
6439;DHT22;3252;52.540;13.290;2024-02-26T03:48:14;20.50;93.00
6439;DHT22;3252;52.540;13.290;2024-02-26T03:50:16;20.50;93.00
6439;DHT22;3252;52.540;13.290;2024-02-26T03:52:18;20.50;93.00
6439;DHT22;3252;52.540;13.290;2024-02-26T03:54:20;20.40;93.00
6439;DHT22;3252;52.540;13.290;2024-02-26T03:56:23;20.40;93.00
6439;DHT22;3252;52.540;13.290;2024-02-26T03:58:26;20.40;93.10
6439;DHT22;3252;52.540;13.290;2024-02-26T04:00:28;20.50;93.20
6439;DHT22;3252;52.540;13.290;2024-02-26T04:02:30;20.50;93.20
6439;DHT22;3252;52.540;13.290;2024-02-26T04:04:34;20.70;93.00
6439;DHT22;3252;52.540;13.290;2024-02-26T04:06:36;21.10;92.50
6439;DHT22;3252;52.540;13.290;2024-02-26T04:08:37;21.50;91.60
6439;DHT22;3252;52.540;13.290;2024-02-26T04:10:40;22.00;90.60
6439;DHT22;3252;52.540;13.290;2024-02-26T04:12:42;22.40;89.40
6439;DHT22;3252;52.540;13.290;2024-02-26T04:14:46;22.80;87.50
6439;DHT22;3252;52.540;13.290;2024-02-26T04:16:48;23.10;86.10
6439;DHT22;3252;52.540;13.290;2024-02-26T04:18:52;23.40;84.90
6439;DHT22;3252;52.540;13.290;2024-02-26T04:20:55;23.60;83.80
6439;DHT22;3252;52.540;13.290;2024-02-26T04:22:57;23.80;82.90
6439;DHT22;3252;52.540;13.290;2024-02-26T04:24:59;24.00;81.70
6439;DHT22;3252;52.540;13.290;2024-02-26T04:27:02;24.40;80.20
6439;DHT22;3252;52.540;13.290;2024-02-26T04:29:04;24.80;78.20
6439;DHT22;3252;52.540;13.290;2024-02-26T04:31:07;25.30;76.00
6439;DHT22;3252;52.540;13.290;2024-02-26T04:33:09;25.90;73.20
6439;DHT22;3252;52.540;13.290;2024-02-26T04:35:11;26.50;70.50
6439;DHT22;3252;52.540;13.290;2024-02-26T04:37:13;27.10;68.30
6439;DHT22;3252;52.540;13.290;2024-02-26T04:39:15;27.60;66.10
6439;DHT22;3252;52.540;13.290;2024-02-26T04:41:17;27.90;63.90
6439;DHT22;3252;52.540;13.290;2024-02-26T04:43:20;28.20;63.00
6439;DHT22;3252;52.540;13.290;2024-02-26T04:45:22;28.30;62.10
6439;DHT22;3252;52.540;13.290;2024-02-26T04:47:25;28.40;61.70
6439;DHT22;3252;52.540;13.290;2024-02-26T04:49:27;28.40;61.30
6439;DHT22;3252;52.540;13.290;2024-02-26T04:51:29;28.40;61.30
6439;DHT22;3252;52.540;13.290;2024-02-26T04:53:31;28.40;61.40
6439;DHT22;3252;52.540;13.290;2024-02-26T04:55:32;28.30;61.40
6439;DHT22;3252;52.540;13.290;2024-02-26T04:57:35;28.30;61.50
6439;DHT22;3252;52.540;13.290;2024-02-26T04:59:37;28.30;61.70
6439;DHT22;3252;52.540;13.290;2024-02-26T05:01:39;28.20;61.90
6439;DHT22;3252;52.540;13.290;2024-02-26T05:03:43;28.10;62.20
6439;DHT22;3252;52.540;13.290;2024-02-26T05:05:45;28.00;62.70
6439;DHT22;3252;52.540;13.290;2024-02-26T05:07:47;28.00;63.10
6439;DHT22;3252;52.540;13.290;2024-02-26T05:09:49;28.10;62.90
6439;DHT22;3252;52.540;13.290;2024-02-26T05:11:52;28.20;62.30
6439;DHT22;3252;52.540;13.290;2024-02-26T05:13:54;28.40;61.40
6439;DHT22;3252;52.540;13.290;2024-02-26T05:15:56;28.70;60.20
6439;DHT22;3252;52.540;13.290;2024-02-26T05:17:58;29.00;59.30
6439;DHT22;3252;52.540;13.290;2024-02-26T05:20:01;29.30;58.40
6439;DHT22;3252;52.540;13.290;2024-02-26T05:22:03;29.60;57.50
6439;DHT22;3252;52.540;13.290;2024-02-26T05:24:05;29.90;56.80
6439;DHT22;3252;52.540;13.290;2024-02-26T05:26:08;30.10;56.30
6439;DHT22;3252;52.540;13.290;2024-02-26T05:28:10;30.30;55.70
6439;DHT22;3252;52.540;13.290;2024-02-26T05:30:13;30.40;55.30
6439;DHT22;3252;52.540;13.290;2024-02-26T05:32:15;30.50;54.90
6439;DHT22;3252;52.540;13.290;2024-02-26T05:34:17;30.70;54.40
6439;DHT22;3252;52.540;13.290;2024-02-26T05:36:21;30.80;54.10
6439;DHT22;3252;52.540;13.290;2024-02-26T05:38:23;30.90;53.70
6439;DHT22;3252;52.540;13.290;2024-02-26T05:40:25;31.00;53.50
6439;DHT22;3252;52.540;13.290;2024-02-26T05:42:27;31.10;53.30
6439;DHT22;3252;52.540;13.290;2024-02-26T05:44:29;31.10;53.20
6439;DHT22;3252;52.540;13.290;2024-02-26T05:46:32;31.10;53.20
6439;DHT22;3252;52.540;13.290;2024-02-26T05:48:34;31.10;53.10
6439;DHT22;3252;52.540;13.290;2024-02-26T05:50:35;31.10;53.20
6439;DHT22;3252;52.540;13.290;2024-02-26T05:52:38;31.00;53.50
6439;DHT22;3252;52.540;13.290;2024-02-26T05:54:40;30.90;53.80
6439;DHT22;3252;52.540;13.290;2024-02-26T05:56:43;30.70;54.30
6439;DHT22;3252;52.540;13.290;2024-02-26T05:58:45;30.50;54.80
6439;DHT22;3252;52.540;13.290;2024-02-26T06:00:47;30.30;55.30
6439;DHT22;3252;52.540;13.290;2024-02-26T06:02:49;30.10;56.00
6439;DHT22;3252;52.540;13.290;2024-02-26T06:04:51;29.90;56.60
6439;DHT22;3252;52.540;13.290;2024-02-26T06:06:53;29.60;57.30
6439;DHT22;3252;52.540;13.290;2024-02-26T06:08:56;29.40;58.10
6439;DHT22;3252;52.540;13.290;2024-02-26T06:10:59;29.20;58.90
6439;DHT22;3252;52.540;13.290;2024-02-26T06:13:01;28.90;59.80
6439;DHT22;3252;52.540;13.290;2024-02-26T06:15:03;28.70;60.70
6439;DHT22;3252;52.540;13.290;2024-02-26T06:17:05;28.40;61.80
6439;DHT22;3252;52.540;13.290;2024-02-26T06:19:07;28.20;62.80
6439;DHT22;3252;52.540;13.290;2024-02-26T06:21:10;28.00;63.90
6439;DHT22;3252;52.540;13.290;2024-02-26T06:23:11;27.80;65.00
6439;DHT22;3252;52.540;13.290;2024-02-26T06:25:15;27.60;66.40
6439;DHT22;3252;52.540;13.290;2024-02-26T06:27:17;27.40;67.50
6439;DHT22;3252;52.540;13.290;2024-02-26T06:29:19;27.20;68.70
6439;DHT22;3252;52.540;13.290;2024-02-26T06:31:21;27.00;69.80
6439;DHT22;3252;52.540;13.290;2024-02-26T06:33:24;26.90;71.20
6439;DHT22;3252;52.540;13.290;2024-02-26T06:35:25;26.70;71.80
6439;DHT22;3252;52.540;13.290;2024-02-26T06:37:27;26.50;73.20
6439;DHT22;3252;52.540;13.290;2024-02-26T06:39:29;26.30;73.80
6439;DHT22;3252;52.540;13.290;2024-02-26T06:41:32;26.20;75.00
6439;DHT22;3252;52.540;13.290;2024-02-26T06:43:34;26.20;75.20
6439;DHT22;3252;52.540;13.290;2024-02-26T06:45:36;26.40;75.00
6439;DHT22;3252;52.540;13.290;2024-02-26T06:47:39;26.70;74.50
6439;DHT22;3252;52.540;13.290;2024-02-26T06:49:41;26.90;73.40
6439;DHT22;3252;52.540;13.290;2024-02-26T06:51:44;27.10;72.90
6439;DHT22;3252;52.540;13.290;2024-02-26T06:53:46;27.40;71.90
6439;DHT22;3252;52.540;13.290;2024-02-26T06:55:48;27.50;71.70
6439;DHT22;3252;52.540;13.290;2024-02-26T06:57:52;27.50;71.50
6439;DHT22;3252;52.540;13.290;2024-02-26T06:59:54;27.50;71.50
6439;DHT22;3252;52.540;13.290;2024-02-26T07:01:55;27.60;72.10
6439;DHT22;3252;52.540;13.290;2024-02-26T07:03:57;27.50;72.00
6439;DHT22;3252;52.540;13.290;2024-02-26T07:05:59;27.50;72.40
6439;DHT22;3252;52.540;13.290;2024-02-26T07:08:01;27.50;72.70
6439;DHT22;3252;52.540;13.290;2024-02-26T07:10:03;27.40;73.30
6439;DHT22;3252;52.540;13.290;2024-02-26T07:12:07;27.30;74.30
6439;DHT22;3252;52.540;13.290;2024-02-26T07:14:11;27.20;74.30
6439;DHT22;3252;52.540;13.290;2024-02-26T07:16:14;27.10;74.80
6439;DHT22;3252;52.540;13.290;2024-02-26T07:18:16;27.00;75.70
6439;DHT22;3252;52.540;13.290;2024-02-26T07:20:18;26.80;76.30
6439;DHT22;3252;52.540;13.290;2024-02-26T07:22:19;26.70;77.20
6439;DHT22;3252;52.540;13.290;2024-02-26T07:24:21;26.60;78.10
6439;DHT22;3252;52.540;13.290;2024-02-26T07:26:22;26.60;78.00
6439;DHT22;3252;52.540;13.290;2024-02-26T07:28:26;26.70;77.60
6439;DHT22;3252;52.540;13.290;2024-02-26T07:30:30;27.00;76.80
6439;DHT22;3252;52.540;13.290;2024-02-26T07:32:32;27.30;75.60
6439;DHT22;3252;52.540;13.290;2024-02-26T07:34:34;27.70;73.60
6439;DHT22;3252;52.540;13.290;2024-02-26T07:36:36;28.10;71.60
6439;DHT22;3252;52.540;13.290;2024-02-26T07:38:38;28.50;69.50
6439;DHT22;3252;52.540;13.290;2024-02-26T07:40:39;28.90;67.50
6439;DHT22;3252;52.540;13.290;2024-02-26T07:42:41;29.10;66.30
6439;DHT22;3252;52.540;13.290;2024-02-26T07:44:43;29.30;65.00
6439;DHT22;3252;52.540;13.290;2024-02-26T07:46:47;29.40;64.20
6439;DHT22;3252;52.540;13.290;2024-02-26T07:48:49;29.40;63.50
6439;DHT22;3252;52.540;13.290;2024-02-26T07:50:51;29.40;63.50
6439;DHT22;3252;52.540;13.290;2024-02-26T07:52:53;29.40;63.70
6439;DHT22;3252;52.540;13.290;2024-02-26T07:54:55;29.30;63.90
6439;DHT22;3252;52.540;13.290;2024-02-26T07:56:57;29.20;64.30
6439;DHT22;3252;52.540;13.290;2024-02-26T07:58:59;29.00;64.90
6439;DHT22;3252;52.540;13.290;2024-02-26T08:01:01;28.80;65.50
6439;DHT22;3252;52.540;13.290;2024-02-26T08:03:04;28.70;66.20
6439;DHT22;3252;52.540;13.290;2024-02-26T08:05:06;28.50;66.90
6439;DHT22;3252;52.540;13.290;2024-02-26T08:07:08;28.30;67.60
6439;DHT22;3252;52.540;13.290;2024-02-26T08:09:10;28.20;68.30
6439;DHT22;3252;52.540;13.290;2024-02-26T08:11:11;28.00;69.00
6439;DHT22;3252;52.540;13.290;2024-02-26T08:13:17;27.90;69.90
6439;DHT22;3252;52.540;13.290;2024-02-26T08:15:19;27.70;70.80
6439;DHT22;3252;52.540;13.290;2024-02-26T08:17:21;27.50;71.40
6439;DHT22;3252;52.540;13.290;2024-02-26T08:19:26;27.40;72.20
6439;DHT22;3252;52.540;13.290;2024-02-26T08:21:28;27.30;72.50
6439;DHT22;3252;52.540;13.290;2024-02-26T08:23:30;27.30;72.80
6439;DHT22;3252;52.540;13.290;2024-02-26T08:25:32;27.30;72.60
6439;DHT22;3252;52.540;13.290;2024-02-26T08:27:34;27.40;72.40
6439;DHT22;3252;52.540;13.290;2024-02-26T08:29:37;27.50;72.10
6439;DHT22;3252;52.540;13.290;2024-02-26T08:31:39;27.50;71.70
6439;DHT22;3252;52.540;13.290;2024-02-26T08:33:41;27.50;71.40
6439;DHT22;3252;52.540;13.290;2024-02-26T08:35:45;27.60;71.30
6439;DHT22;3252;52.540;13.290;2024-02-26T08:37:47;27.60;71.30
6439;DHT22;3252;52.540;13.290;2024-02-26T08:39:49;27.60;71.30
6439;DHT22;3252;52.540;13.290;2024-02-26T08:41:51;27.60;71.50
6439;DHT22;3252;52.540;13.290;2024-02-26T08:43:53;27.50;71.50
6439;DHT22;3252;52.540;13.290;2024-02-26T08:45:56;27.50;71.80
6439;DHT22;3252;52.540;13.290;2024-02-26T08:47:58;27.40;72.10
6439;DHT22;3252;52.540;13.290;2024-02-26T08:50:01;27.30;72.60
6439;DHT22;3252;52.540;13.290;2024-02-26T08:52:04;27.20;72.90
6439;DHT22;3252;52.540;13.290;2024-02-26T08:54:07;27.10;73.40
6439;DHT22;3252;52.540;13.290;2024-02-26T08:56:08;27.00;73.90
6439;DHT22;3252;52.540;13.290;2024-02-26T08:58:11;26.90;74.40
6439;DHT22;3252;52.540;13.290;2024-02-26T09:00:14;26.80;74.80
6439;DHT22;3252;52.540;13.290;2024-02-26T09:02:18;26.70;75.40
6439;DHT22;3252;52.540;13.290;2024-02-26T09:04:20;26.60;76.00
6439;DHT22;3252;52.540;13.290;2024-02-26T09:06:22;26.50;76.50
6439;DHT22;3252;52.540;13.290;2024-02-26T09:08:26;26.40;77.00
6439;DHT22;3252;52.540;13.290;2024-02-26T09:10:28;26.30;77.60
6439;DHT22;3252;52.540;13.290;2024-02-26T09:12:30;26.20;78.10
6439;DHT22;3252;52.540;13.290;2024-02-26T09:14:33;26.10;78.70
6439;DHT22;3252;52.540;13.290;2024-02-26T09:16:35;25.90;79.10
6439;DHT22;3252;52.540;13.290;2024-02-26T09:18:37;25.90;79.80
6439;DHT22;3252;52.540;13.290;2024-02-26T09:20:39;25.70;80.10
6439;DHT22;3252;52.540;13.290;2024-02-26T09:22:41;25.70;80.90
6439;DHT22;3252;52.540;13.290;2024-02-26T09:24:45;25.50;81.60
6439;DHT22;3252;52.540;13.290;2024-02-26T09:26:47;25.50;82.20
6439;DHT22;3252;52.540;13.290;2024-02-26T09:28:49;25.40;82.40
6439;DHT22;3252;52.540;13.290;2024-02-26T09:30:51;25.50;82.50
6439;DHT22;3252;52.540;13.290;2024-02-26T09:32:54;25.50;82.10
6439;DHT22;3252;52.540;13.290;2024-02-26T09:34:56;25.70;81.70
6439;DHT22;3252;52.540;13.290;2024-02-26T09:36:58;25.80;81.10
6439;DHT22;3252;52.540;13.290;2024-02-26T09:39:01;25.90;80.40
6439;DHT22;3252;52.540;13.290;2024-02-26T09:41:05;26.00;79.80
6439;DHT22;3252;52.540;13.290;2024-02-26T09:43:10;26.10;79.30
6439;DHT22;3252;52.540;13.290;2024-02-26T09:45:18;26.20;79.00
6439;DHT22;3252;52.540;13.290;2024-02-26T09:47:22;26.20;78.70
6439;DHT22;3252;52.540;13.290;2024-02-26T09:49:25;26.30;78.60
6439;DHT22;3252;52.540;13.290;2024-02-26T09:51:27;26.30;78.50
6439;DHT22;3252;52.540;13.290;2024-02-26T09:53:30;26.30;78.70
6439;DHT22;3252;52.540;13.290;2024-02-26T09:55:34;26.30;78.80
6439;DHT22;3252;52.540;13.290;2024-02-26T09:57:37;26.20;78.90
6439;DHT22;3252;52.540;13.290;2024-02-26T09:59:39;26.20;79.10
6439;DHT22;3252;52.540;13.290;2024-02-26T10:01:44;26.20;79.40
6439;DHT22;3252;52.540;13.290;2024-02-26T10:03:55;26.10;79.50
6439;DHT22;3252;52.540;13.290;2024-02-26T10:05:58;26.00;79.90
6439;DHT22;3252;52.540;13.290;2024-02-26T10:08:01;25.90;80.50
6439;DHT22;3252;52.540;13.290;2024-02-26T10:10:04;25.90;81.20
6439;DHT22;3252;52.540;13.290;2024-02-26T10:12:11;25.80;81.30
6439;DHT22;3252;52.540;13.290;2024-02-26T10:14:16;25.80;81.70
6439;DHT22;3252;52.540;13.290;2024-02-26T10:16:19;25.70;81.70
6439;DHT22;3252;52.540;13.290;2024-02-26T10:18:22;25.70;81.70
6439;DHT22;3252;52.540;13.290;2024-02-26T10:20:25;25.70;81.80
6439;DHT22;3252;52.540;13.290;2024-02-26T10:22:28;25.70;81.90
6439;DHT22;3252;52.540;13.290;2024-02-26T10:24:30;25.70;82.10
6439;DHT22;3252;52.540;13.290;2024-02-26T10:26:32;25.70;82.10
6439;DHT22;3252;52.540;13.290;2024-02-26T10:28:34;25.70;82.00
6439;DHT22;3252;52.540;13.290;2024-02-26T10:30:38;25.80;81.90
6439;DHT22;3252;52.540;13.290;2024-02-26T10:32:40;25.80;81.80
6439;DHT22;3252;52.540;13.290;2024-02-26T10:34:41;25.80;81.70
6439;DHT22;3252;52.540;13.290;2024-02-26T10:36:43;25.80;81.50
6439;DHT22;3252;52.540;13.290;2024-02-26T10:38:45;25.80;81.50
6439;DHT22;3252;52.540;13.290;2024-02-26T10:40:49;25.80;81.40
6439;DHT22;3252;52.540;13.290;2024-02-26T10:42:51;25.80;81.50
6439;DHT22;3252;52.540;13.290;2024-02-26T10:44:53;25.80;81.60
6439;DHT22;3252;52.540;13.290;2024-02-26T10:46:57;25.70;81.70
6439;DHT22;3252;52.540;13.290;2024-02-26T10:48:59;25.70;82.00
6439;DHT22;3252;52.540;13.290;2024-02-26T10:51:01;25.70;82.30
6439;DHT22;3252;52.540;13.290;2024-02-26T10:53:05;25.60;82.70
6439;DHT22;3252;52.540;13.290;2024-02-26T10:55:13;25.50;82.90
6439;DHT22;3252;52.540;13.290;2024-02-26T10:57:18;25.50;83.40
6439;DHT22;3252;52.540;13.290;2024-02-26T10:59:22;25.40;83.80
6439;DHT22;3252;52.540;13.290;2024-02-26T11:01:25;25.30;84.40
6439;DHT22;3252;52.540;13.290;2024-02-26T11:03:31;25.20;84.60
6439;DHT22;3252;52.540;13.290;2024-02-26T11:05:35;25.20;84.70
6439;DHT22;3252;52.540;13.290;2024-02-26T11:07:38;25.30;84.70
6439;DHT22;3252;52.540;13.290;2024-02-26T11:09:44;25.30;84.50
6439;DHT22;3252;52.540;13.290;2024-02-26T11:11:52;25.30;84.30
6439;DHT22;3252;52.540;13.290;2024-02-26T11:13:56;25.40;84.20
6439;DHT22;3252;52.540;13.290;2024-02-26T11:15:59;25.40;83.90
6439;DHT22;3252;52.540;13.290;2024-02-26T11:18:01;25.40;83.80
6439;DHT22;3252;52.540;13.290;2024-02-26T11:20:10;25.40;83.60
6439;DHT22;3252;52.540;13.290;2024-02-26T11:22:13;25.50;83.60
6439;DHT22;3252;52.540;13.290;2024-02-26T11:24:15;25.40;83.60
6439;DHT22;3252;52.540;13.290;2024-02-26T11:26:20;25.40;83.70
6439;DHT22;3252;52.540;13.290;2024-02-26T11:28:24;25.40;83.90
6439;DHT22;3252;52.540;13.290;2024-02-26T11:30:30;25.30;84.00
6439;DHT22;3252;52.540;13.290;2024-02-26T11:32:33;25.30;84.30
6439;DHT22;3252;52.540;13.290;2024-02-26T11:34:36;25.20;84.50
6439;DHT22;3252;52.540;13.290;2024-02-26T11:36:39;25.20;84.80
6439;DHT22;3252;52.540;13.290;2024-02-26T11:38:43;25.10;85.10
6439;DHT22;3252;52.540;13.290;2024-02-26T11:40:47;25.00;85.40
6439;DHT22;3252;52.540;13.290;2024-02-26T11:42:50;25.00;85.80
6439;DHT22;3252;52.540;13.290;2024-02-26T11:44:53;24.90;86.10
6439;DHT22;3252;52.540;13.290;2024-02-26T11:46:56;24.80;86.40
6439;DHT22;3252;52.540;13.290;2024-02-26T11:49:00;24.70;86.90
6439;DHT22;3252;52.540;13.290;2024-02-26T11:51:05;24.70;87.60
6439;DHT22;3252;52.540;13.290;2024-02-26T11:53:24;24.60;87.80
6439;DHT22;3252;52.540;13.290;2024-02-26T11:55:32;24.70;87.90
6439;DHT22;3252;52.540;13.290;2024-02-26T11:57:39;24.80;87.50
6439;DHT22;3252;52.540;13.290;2024-02-26T11:59:41;24.90;87.60
6439;DHT22;3252;52.540;13.290;2024-02-26T12:01:44;25.00;86.50
6439;DHT22;3252;52.540;13.290;2024-02-26T12:03:47;25.10;85.90
6439;DHT22;3252;52.540;13.290;2024-02-26T12:05:49;25.10;85.30
6439;DHT22;3252;52.540;13.290;2024-02-26T12:07:53;25.30;85.00
6439;DHT22;3252;52.540;13.290;2024-02-26T12:12:37;25.40;85.00
6439;DHT22;3252;52.540;13.290;2024-02-26T12:14:51;25.40;84.20
6439;DHT22;3252;52.540;13.290;2024-02-26T12:16:55;25.40;84.10
6439;DHT22;3252;52.540;13.290;2024-02-26T12:18:59;25.40;84.10
6439;DHT22;3252;52.540;13.290;2024-02-26T12:21:01;25.40;84.10
6439;DHT22;3252;52.540;13.290;2024-02-26T12:23:04;25.30;84.20
6439;DHT22;3252;52.540;13.290;2024-02-26T12:25:09;25.30;84.30
6439;DHT22;3252;52.540;13.290;2024-02-26T12:27:10;25.20;84.50
6439;DHT22;3252;52.540;13.290;2024-02-26T12:29:14;25.20;84.70
6439;DHT22;3252;52.540;13.290;2024-02-26T12:31:16;25.20;85.00
6439;DHT22;3252;52.540;13.290;2024-02-26T12:33:19;25.10;85.20
6439;DHT22;3252;52.540;13.290;2024-02-26T12:35:21;25.00;85.40
6439;DHT22;3252;52.540;13.290;2024-02-26T12:37:23;25.00;85.80
6439;DHT22;3252;52.540;13.290;2024-02-26T12:39:24;24.90;86.00
6439;DHT22;3252;52.540;13.290;2024-02-26T12:41:27;24.80;86.30
6439;DHT22;3252;52.540;13.290;2024-02-26T12:43:31;24.80;86.60
6439;DHT22;3252;52.540;13.290;2024-02-26T12:45:34;24.70;87.00
6439;DHT22;3252;52.540;13.290;2024-02-26T12:47:37;24.60;87.20
6439;DHT22;3252;52.540;13.290;2024-02-26T12:49:41;24.50;87.50
6439;DHT22;3252;52.540;13.290;2024-02-26T12:51:44;24.50;87.80
6439;DHT22;3252;52.540;13.290;2024-02-26T12:53:46;24.40;88.20
6439;DHT22;3252;52.540;13.290;2024-02-26T12:55:50;24.30;88.40
6439;DHT22;3252;52.540;13.290;2024-02-26T12:57:54;24.30;88.70
6439;DHT22;3252;52.540;13.290;2024-02-26T12:59:57;24.20;89.00
6439;DHT22;3252;52.540;13.290;2024-02-26T13:02:01;24.20;89.30
6439;DHT22;3252;52.540;13.290;2024-02-26T13:04:03;24.10;89.50
6439;DHT22;3252;52.540;13.290;2024-02-26T13:06:07;24.00;89.80
6439;DHT22;3252;52.540;13.290;2024-02-26T13:08:09;23.90;90.00
6439;DHT22;3252;52.540;13.290;2024-02-26T13:10:11;23.90;90.10